sensor_id;sensor_type;location;lat;lon;timestamp;P1;durP1;ratioP1;P2;durP2;ratioP2
73938;SDS011;62291;47.554;8.504;2023-07-02T00:01:33;6.63;;;3.85;;
73938;SDS011;62291;47.554;8.504;2023-07-02T00:03:59;8.15;;;3.97;;
73938;SDS011;62291;47.554;8.504;2023-07-02T00:06:25;4.97;;;3.78;;
73938;SDS011;62291;47.554;8.504;2023-07-02T00:08:50;4.95;;;4.10;;
73938;SDS011;62291;47.554;8.504;2023-07-02T00:11:16;5.82;;;4.22;;
73938;SDS011;62291;47.554;8.504;2023-07-02T00:13:42;5.88;;;3.85;;
73938;SDS011;62291;47.554;8.504;2023-07-02T00:16:07;4.65;;;4.03;;
73938;SDS011;62291;47.554;8.504;2023-07-02T00:18:33;5.05;;;4.05;;
73938;SDS011;62291;47.554;8.504;2023-07-02T00:21:02;4.40;;;3.50;;
73938;SDS011;62291;47.554;8.504;2023-07-02T00:23:28;3.70;;;3.40;;
73938;SDS011;62291;47.554;8.504;2023-07-02T00:25:54;4.35;;;3.60;;
73938;SDS011;62291;47.554;8.504;2023-07-02T00:28:21;5.30;;;4.22;;
73938;SDS011;62291;47.554;8.504;2023-07-02T00:30:47;4.97;;;4.18;;
73938;SDS011;62291;47.554;8.504;2023-07-02T00:33:13;5.05;;;3.00;;
73938;SDS011;62291;47.554;8.504;2023-07-02T00:35:39;5.40;;;3.17;;
73938;SDS011;62291;47.554;8.504;2023-07-02T00:38:04;3.35;;;3.05;;
73938;SDS011;62291;47.554;8.504;2023-07-02T00:40:30;4.70;;;3.53;;
73938;SDS011;62291;47.554;8.504;2023-07-02T00:42:56;3.13;;;2.83;;
73938;SDS011;62291;47.554;8.504;2023-07-02T00:45:22;3.63;;;2.20;;
73938;SDS011;62291;47.554;8.504;2023-07-02T00:47:53;2.55;;;1.98;;
73938;SDS011;62291;47.554;8.504;2023-07-02T00:50:19;2.88;;;2.42;;
73938;SDS011;62291;47.554;8.504;2023-07-02T00:52:48;2.15;;;1.80;;
73938;SDS011;62291;47.554;8.504;2023-07-02T00:55:13;2.28;;;1.83;;
73938;SDS011;62291;47.554;8.504;2023-07-02T00:57:39;2.42;;;2.00;;
73938;SDS011;62291;47.554;8.504;2023-07-02T01:00:06;2.50;;;1.88;;
73938;SDS011;62291;47.554;8.504;2023-07-02T01:02:32;2.58;;;2.00;;
73938;SDS011;62291;47.554;8.504;2023-07-02T01:04:58;1.70;;;1.60;;
73938;SDS011;62291;47.554;8.504;2023-07-02T01:07:25;2.22;;;1.85;;
73938;SDS011;62291;47.554;8.504;2023-07-02T01:09:50;2.72;;;1.98;;
73938;SDS011;62291;47.554;8.504;2023-07-02T01:12:17;3.40;;;1.65;;
73938;SDS011;62291;47.554;8.504;2023-07-02T01:14:50;3.28;;;2.20;;
73938;SDS011;62291;47.554;8.504;2023-07-02T01:17:18;2.42;;;2.08;;
73938;SDS011;62291;47.554;8.504;2023-07-02T01:19:49;3.13;;;2.30;;
73938;SDS011;62291;47.554;8.504;2023-07-02T01:22:20;3.78;;;2.05;;
73938;SDS011;62291;47.554;8.504;2023-07-02T01:24:47;2.63;;;2.03;;
73938;SDS011;62291;47.554;8.504;2023-07-02T01:27:14;3.00;;;2.60;;
73938;SDS011;62291;47.554;8.504;2023-07-02T01:29:41;3.15;;;2.63;;
73938;SDS011;62291;47.554;8.504;2023-07-02T01:32:10;3.42;;;2.50;;
73938;SDS011;62291;47.554;8.504;2023-07-02T01:34:36;4.68;;;3.00;;
73938;SDS011;62291;47.554;8.504;2023-07-02T01:37:02;3.63;;;2.85;;
73938;SDS011;62291;47.554;8.504;2023-07-02T01:39:29;3.60;;;3.03;;
73938;SDS011;62291;47.554;8.504;2023-07-02T01:41:55;4.00;;;3.42;;
73938;SDS011;62291;47.554;8.504;2023-07-02T01:44:32;3.15;;;2.80;;
73938;SDS011;62291;47.554;8.504;2023-07-02T01:46:57;5.15;;;3.08;;
73938;SDS011;62291;47.554;8.504;2023-07-02T01:49:23;3.78;;;3.35;;
73938;SDS011;62291;47.554;8.504;2023-07-02T01:51:50;3.63;;;3.33;;
73938;SDS011;62291;47.554;8.504;2023-07-02T01:54:16;3.97;;;3.58;;
73938;SDS011;62291;47.554;8.504;2023-07-02T01:56:42;6.40;;;3.65;;
73938;SDS011;62291;47.554;8.504;2023-07-02T01:59:08;3.67;;;3.20;;
73938;SDS011;62291;47.554;8.504;2023-07-02T02:01:34;3.47;;;3.17;;
73938;SDS011;62291;47.554;8.504;2023-07-02T02:03:59;4.80;;;3.65;;
73938;SDS011;62291;47.554;8.504;2023-07-02T02:06:25;4.07;;;3.67;;
73938;SDS011;62291;47.554;8.504;2023-07-02T02:08:51;4.18;;;3.72;;
73938;SDS011;62291;47.554;8.504;2023-07-02T02:11:16;5.55;;;3.70;;
73938;SDS011;62291;47.554;8.504;2023-07-02T02:13:42;4.72;;;3.90;;
73938;SDS011;62291;47.554;8.504;2023-07-02T02:16:08;5.30;;;4.10;;
73938;SDS011;62291;47.554;8.504;2023-07-02T02:18:33;4.53;;;4.05;;
73938;SDS011;62291;47.554;8.504;2023-07-02T02:20:59;5.07;;;4.32;;
73938;SDS011;62291;47.554;8.504;2023-07-02T02:23:25;4.85;;;4.10;;
73938;SDS011;62291;47.554;8.504;2023-07-02T02:25:51;4.25;;;3.83;;
73938;SDS011;62291;47.554;8.504;2023-07-02T02:28:17;4.40;;;4.00;;
73938;SDS011;62291;47.554;8.504;2023-07-02T02:30:42;5.15;;;4.00;;
73938;SDS011;62291;47.554;8.504;2023-07-02T02:33:08;4.43;;;4.03;;
73938;SDS011;62291;47.554;8.504;2023-07-02T02:35:34;5.38;;;4.18;;
73938;SDS011;62291;47.554;8.504;2023-07-02T02:38:01;6.90;;;3.80;;
73938;SDS011;62291;47.554;8.504;2023-07-02T02:40:29;4.20;;;3.67;;
73938;SDS011;62291;47.554;8.504;2023-07-02T02:42:54;4.45;;;3.75;;
73938;SDS011;62291;47.554;8.504;2023-07-02T02:45:20;4.97;;;3.95;;
73938;SDS011;62291;47.554;8.504;2023-07-02T02:47:46;6.05;;;3.90;;
73938;SDS011;62291;47.554;8.504;2023-07-02T02:50:12;4.82;;;4.00;;
73938;SDS011;62291;47.554;8.504;2023-07-02T02:52:39;4.35;;;3.65;;
73938;SDS011;62291;47.554;8.504;2023-07-02T02:55:05;4.80;;;3.75;;
73938;SDS011;62291;47.554;8.504;2023-07-02T02:57:32;6.55;;;3.80;;
73938;SDS011;62291;47.554;8.504;2023-07-02T02:59:58;4.43;;;3.63;;
73938;SDS011;62291;47.554;8.504;2023-07-02T03:02:24;4.65;;;4.05;;
73938;SDS011;62291;47.554;8.504;2023-07-02T03:04:50;7.25;;;4.30;;
73938;SDS011;62291;47.554;8.504;2023-07-02T03:07:16;4.70;;;4.00;;
73938;SDS011;62291;47.554;8.504;2023-07-02T03:09:42;7.43;;;3.92;;
73938;SDS011;62291;47.554;8.504;2023-07-02T03:12:08;8.07;;;4.40;;
73938;SDS011;62291;47.554;8.504;2023-07-02T03:14:34;6.93;;;4.32;;
73938;SDS011;62291;47.554;8.504;2023-07-02T03:17:00;7.00;;;4.72;;
73938;SDS011;62291;47.554;8.504;2023-07-02T03:19:25;9.25;;;5.00;;
73938;SDS011;62291;47.554;8.504;2023-07-02T03:21:51;8.77;;;6.35;;
73938;SDS011;62291;47.554;8.504;2023-07-02T03:24:17;11.60;;;7.55;;
73938;SDS011;62291;47.554;8.504;2023-07-02T03:26:43;11.93;;;8.70;;
73938;SDS011;62291;47.554;8.504;2023-07-02T03:29:09;11.45;;;8.25;;
73938;SDS011;62291;47.554;8.504;2023-07-02T03:31:36;14.00;;;8.10;;
73938;SDS011;62291;47.554;8.504;2023-07-02T03:34:03;11.98;;;7.75;;
73938;SDS011;62291;47.554;8.504;2023-07-02T03:36:31;10.57;;;7.15;;
73938;SDS011;62291;47.554;8.504;2023-07-02T03:38:56;11.40;;;6.18;;
73938;SDS011;62291;47.554;8.504;2023-07-02T03:41:22;14.38;;;6.20;;
73938;SDS011;62291;47.554;8.504;2023-07-02T03:43:48;10.30;;;6.30;;
73938;SDS011;62291;47.554;8.504;2023-07-02T03:46:14;9.38;;;6.15;;
73938;SDS011;62291;47.554;8.504;2023-07-02T03:48:39;11.65;;;5.95;;
73938;SDS011;62291;47.554;8.504;2023-07-02T03:51:05;8.77;;;5.93;;
73938;SDS011;62291;47.554;8.504;2023-07-02T03:53:31;8.52;;;5.70;;
73938;SDS011;62291;47.554;8.504;2023-07-02T03:55:57;8.82;;;5.47;;
73938;SDS011;62291;47.554;8.504;2023-07-02T03:58:22;7.97;;;5.70;;
73938;SDS011;62291;47.554;8.504;2023-07-02T04:00:48;9.82;;;6.30;;
73938;SDS011;62291;47.554;8.504;2023-07-02T04:03:17;10.52;;;6.15;;
73938;SDS011;62291;47.554;8.504;2023-07-02T04:05:43;10.88;;;5.75;;
73938;SDS011;62291;47.554;8.504;2023-07-02T04:08:09;13.52;;;6.13;;
73938;SDS011;62291;47.554;8.504;2023-07-02T04:10:35;9.40;;;6.25;;
73938;SDS011;62291;47.554;8.504;2023-07-02T04:13:01;12.73;;;6.82;;
73938;SDS011;62291;47.554;8.504;2023-07-02T04:15:27;9.85;;;6.38;;
73938;SDS011;62291;47.554;8.504;2023-07-02T04:17:52;11.60;;;7.45;;
73938;SDS011;62291;47.554;8.504;2023-07-02T04:20:19;10.93;;;6.95;;
73938;SDS011;62291;47.554;8.504;2023-07-02T04:22:45;15.13;;;8.43;;
73938;SDS011;62291;47.554;8.504;2023-07-02T04:25:11;16.42;;;8.23;;
73938;SDS011;62291;47.554;8.504;2023-07-02T04:27:40;16.17;;;8.48;;
73938;SDS011;62291;47.554;8.504;2023-07-02T04:30:07;13.05;;;8.45;;
73938;SDS011;62291;47.554;8.504;2023-07-02T04:32:34;14.02;;;8.40;;
73938;SDS011;62291;47.554;8.504;2023-07-02T04:35:01;15.07;;;8.73;;
73938;SDS011;62291;47.554;8.504;2023-07-02T04:37:26;13.55;;;8.50;;
73938;SDS011;62291;47.554;8.504;2023-07-02T04:39:55;12.35;;;8.40;;
73938;SDS011;62291;47.554;8.504;2023-07-02T04:42:20;14.43;;;8.25;;
73938;SDS011;62291;47.554;8.504;2023-07-02T04:44:46;12.80;;;8.48;;
73938;SDS011;62291;47.554;8.504;2023-07-02T04:47:12;13.32;;;8.10;;
73938;SDS011;62291;47.554;8.504;2023-07-02T04:49:38;12.63;;;8.82;;
73938;SDS011;62291;47.554;8.504;2023-07-02T04:52:04;15.38;;;8.30;;
73938;SDS011;62291;47.554;8.504;2023-07-02T04:54:29;12.77;;;8.20;;
73938;SDS011;62291;47.554;8.504;2023-07-02T04:56:55;12.57;;;8.48;;
73938;SDS011;62291;47.554;8.504;2023-07-02T04:59:21;12.80;;;8.20;;
73938;SDS011;62291;47.554;8.504;2023-07-02T05:01:47;17.17;;;9.55;;
73938;SDS011;62291;47.554;8.504;2023-07-02T05:04:12;12.50;;;8.43;;
73938;SDS011;62291;47.554;8.504;2023-07-02T05:06:38;16.10;;;8.02;;
73938;SDS011;62291;47.554;8.504;2023-07-02T05:09:04;12.45;;;7.90;;
73938;SDS011;62291;47.554;8.504;2023-07-02T05:11:30;13.30;;;8.73;;
73938;SDS011;62291;47.554;8.504;2023-07-02T05:13:55;15.55;;;8.38;;
73938;SDS011;62291;47.554;8.504;2023-07-02T05:16:21;12.38;;;7.97;;
73938;SDS011;62291;47.554;8.504;2023-07-02T05:18:47;12.80;;;8.23;;
73938;SDS011;62291;47.554;8.504;2023-07-02T05:21:17;11.38;;;7.90;;
73938;SDS011;62291;47.554;8.504;2023-07-02T05:23:43;13.43;;;7.95;;
73938;SDS011;62291;47.554;8.504;2023-07-02T05:26:09;11.63;;;7.75;;
73938;SDS011;62291;47.554;8.504;2023-07-02T05:28:35;11.70;;;6.93;;
73938;SDS011;62291;47.554;8.504;2023-07-02T05:31:01;10.52;;;7.28;;
73938;SDS011;62291;47.554;8.504;2023-07-02T05:33:26;11.48;;;7.22;;
73938;SDS011;62291;47.554;8.504;2023-07-02T05:35:52;9.60;;;7.05;;
73938;SDS011;62291;47.554;8.504;2023-07-02T05:38:18;8.27;;;7.35;;
73938;SDS011;62291;47.554;8.504;2023-07-02T05:40:44;9.80;;;7.25;;
73938;SDS011;62291;47.554;8.504;2023-07-02T05:43:10;11.50;;;7.22;;
73938;SDS011;62291;47.554;8.504;2023-07-02T05:45:36;10.52;;;6.68;;
73938;SDS011;62291;47.554;8.504;2023-07-02T05:48:02;9.95;;;7.03;;
73938;SDS011;62291;47.554;8.504;2023-07-02T05:50:28;9.48;;;7.07;;
73938;SDS011;62291;47.554;8.504;2023-07-02T05:52:54;12.05;;;6.57;;
73938;SDS011;62291;47.554;8.504;2023-07-02T05:55:19;11.45;;;8.07;;
73938;SDS011;62291;47.554;8.504;2023-07-02T05:57:45;9.68;;;7.55;;
73938;SDS011;62291;47.554;8.504;2023-07-02T06:00:11;11.50;;;8.23;;
73938;SDS011;62291;47.554;8.504;2023-07-02T06:02:37;13.07;;;8.07;;
73938;SDS011;62291;47.554;8.504;2023-07-02T06:05:03;11.25;;;8.43;;
73938;SDS011;62291;47.554;8.504;2023-07-02T06:07:30;12.35;;;9.05;;
73938;SDS011;62291;47.554;8.504;2023-07-02T06:09:55;12.43;;;8.75;;
73938;SDS011;62291;47.554;8.504;2023-07-02T06:12:21;12.80;;;8.82;;
73938;SDS011;62291;47.554;8.504;2023-07-02T06:14:47;15.73;;;10.07;;
73938;SDS011;62291;47.554;8.504;2023-07-02T06:17:13;13.63;;;10.07;;
73938;SDS011;62291;47.554;8.504;2023-07-02T06:19:40;13.68;;;10.35;;
73938;SDS011;62291;47.554;8.504;2023-07-02T06:22:06;15.05;;;10.02;;
73938;SDS011;62291;47.554;8.504;2023-07-02T06:24:32;15.93;;;9.90;;
73938;SDS011;62291;47.554;8.504;2023-07-02T06:26:57;14.43;;;10.57;;
73938;SDS011;62291;47.554;8.504;2023-07-02T06:29:23;17.02;;;11.55;;
73938;SDS011;62291;47.554;8.504;2023-07-02T06:31:49;16.08;;;11.15;;
73938;SDS011;62291;47.554;8.504;2023-07-02T06:34:16;17.95;;;11.43;;
73938;SDS011;62291;47.554;8.504;2023-07-02T06:36:41;19.60;;;12.73;;
73938;SDS011;62291;47.554;8.504;2023-07-02T06:39:07;22.92;;;15.02;;
73938;SDS011;62291;47.554;8.504;2023-07-02T06:41:36;25.40;;;15.02;;
73938;SDS011;62291;47.554;8.504;2023-07-02T06:44:02;26.92;;;16.40;;
73938;SDS011;62291;47.554;8.504;2023-07-02T06:46:29;28.63;;;16.45;;
73938;SDS011;62291;47.554;8.504;2023-07-02T06:48:55;27.17;;;16.30;;
73938;SDS011;62291;47.554;8.504;2023-07-02T06:51:21;26.73;;;16.20;;
73938;SDS011;62291;47.554;8.504;2023-07-02T06:53:47;27.35;;;15.82;;
73938;SDS011;62291;47.554;8.504;2023-07-02T06:56:13;25.60;;;16.65;;
73938;SDS011;62291;47.554;8.504;2023-07-02T06:58:41;27.55;;;16.75;;
73938;SDS011;62291;47.554;8.504;2023-07-02T07:01:07;24.45;;;17.05;;
73938;SDS011;62291;47.554;8.504;2023-07-02T07:03:33;29.00;;;17.60;;
73938;SDS011;62291;47.554;8.504;2023-07-02T07:06:00;26.42;;;16.27;;
73938;SDS011;62291;47.554;8.504;2023-07-02T07:08:25;35.15;;;16.92;;
73938;SDS011;62291;47.554;8.504;2023-07-02T07:10:51;26.92;;;16.85;;
73938;SDS011;62291;47.554;8.504;2023-07-02T07:13:17;29.02;;;16.27;;
73938;SDS011;62291;47.554;8.504;2023-07-02T07:15:42;27.90;;;16.90;;
73938;SDS011;62291;47.554;8.504;2023-07-02T07:18:09;28.73;;;17.52;;
73938;SDS011;62291;47.554;8.504;2023-07-02T07:20:35;29.35;;;17.63;;
73938;SDS011;62291;47.554;8.504;2023-07-02T07:23:02;27.23;;;16.83;;
73938;SDS011;62291;47.554;8.504;2023-07-02T07:25:28;31.67;;;17.90;;
73938;SDS011;62291;47.554;8.504;2023-07-02T07:27:54;28.27;;;17.75;;
73938;SDS011;62291;47.554;8.504;2023-07-02T07:30:20;30.48;;;17.23;;
73938;SDS011;62291;47.554;8.504;2023-07-02T07:32:52;30.27;;;18.17;;
73938;SDS011;62291;47.554;8.504;2023-07-02T07:35:19;26.38;;;17.75;;
73938;SDS011;62291;47.554;8.504;2023-07-02T07:37:46;33.28;;;18.40;;
73938;SDS011;62291;47.554;8.504;2023-07-02T07:40:12;29.05;;;17.75;;
73938;SDS011;62291;47.554;8.504;2023-07-02T07:42:38;30.20;;;17.17;;
73938;SDS011;62291;47.554;8.504;2023-07-02T07:45:03;29.42;;;18.23;;
73938;SDS011;62291;47.554;8.504;2023-07-02T07:47:29;29.13;;;18.60;;
73938;SDS011;62291;47.554;8.504;2023-07-02T07:49:55;29.40;;;18.25;;
73938;SDS011;62291;47.554;8.504;2023-07-02T07:52:21;27.13;;;18.10;;
73938;SDS011;62291;47.554;8.504;2023-07-02T07:54:46;28.17;;;18.05;;
73938;SDS011;62291;47.554;8.504;2023-07-02T07:57:13;24.60;;;17.50;;
73938;SDS011;62291;47.554;8.504;2023-07-02T07:59:39;29.77;;;18.23;;
73938;SDS011;62291;47.554;8.504;2023-07-02T08:02:05;31.15;;;19.08;;
73938;SDS011;62291;47.554;8.504;2023-07-02T08:04:31;28.48;;;18.33;;
73938;SDS011;62291;47.554;8.504;2023-07-02T08:06:56;28.15;;;19.35;;
73938;SDS011;62291;47.554;8.504;2023-07-02T08:09:23;28.38;;;17.77;;
73938;SDS011;62291;47.554;8.504;2023-07-02T08:11:49;28.20;;;18.77;;
73938;SDS011;62291;47.554;8.504;2023-07-02T08:14:16;26.85;;;18.90;;
73938;SDS011;62291;47.554;8.504;2023-07-02T08:16:43;31.10;;;19.55;;
73938;SDS011;62291;47.554;8.504;2023-07-02T08:19:09;29.52;;;19.60;;
73938;SDS011;62291;47.554;8.504;2023-07-02T08:21:35;32.38;;;19.60;;
73938;SDS011;62291;47.554;8.504;2023-07-02T08:24:02;30.40;;;20.08;;
73938;SDS011;62291;47.554;8.504;2023-07-02T08:26:28;29.45;;;20.30;;
73938;SDS011;62291;47.554;8.504;2023-07-02T08:28:54;29.35;;;19.13;;
73938;SDS011;62291;47.554;8.504;2023-07-02T08:31:19;32.47;;;21.83;;
73938;SDS011;62291;47.554;8.504;2023-07-02T08:33:45;31.23;;;21.00;;
73938;SDS011;62291;47.554;8.504;2023-07-02T08:36:11;28.88;;;21.15;;
73938;SDS011;62291;47.554;8.504;2023-07-02T08:38:38;29.33;;;22.33;;
73938;SDS011;62291;47.554;8.504;2023-07-02T08:41:07;39.55;;;22.88;;
73938;SDS011;62291;47.554;8.504;2023-07-02T08:43:32;35.55;;;22.13;;
73938;SDS011;62291;47.554;8.504;2023-07-02T08:45:59;30.85;;;21.83;;
73938;SDS011;62291;47.554;8.504;2023-07-02T08:48:25;31.80;;;24.08;;
73938;SDS011;62291;47.554;8.504;2023-07-02T08:50:54;31.27;;;24.30;;
73938;SDS011;62291;47.554;8.504;2023-07-02T08:53:22;31.38;;;23.08;;
73938;SDS011;62291;47.554;8.504;2023-07-02T08:55:57;32.63;;;24.25;;
73938;SDS011;62291;47.554;8.504;2023-07-02T08:58:23;32.70;;;23.75;;
73938;SDS011;62291;47.554;8.504;2023-07-02T09:01:11;28.50;;;23.30;;
73938;SDS011;62291;47.554;8.504;2023-07-02T09:03:38;28.88;;;22.80;;
73938;SDS011;62291;47.554;8.504;2023-07-02T09:06:06;27.92;;;21.50;;
73938;SDS011;62291;47.554;8.504;2023-07-02T09:08:33;30.73;;;22.75;;
73938;SDS011;62291;47.554;8.504;2023-07-02T09:11:09;27.80;;;21.65;;
73938;SDS011;62291;47.554;8.504;2023-07-02T09:13:52;26.20;;;19.48;;
73938;SDS011;62291;47.554;8.504;2023-07-02T09:16:30;26.08;;;19.10;;
73938;SDS011;62291;47.554;8.504;2023-07-02T09:19:01;26.88;;;20.17;;
73938;SDS011;62291;47.554;8.504;2023-07-02T09:26:41;23.55;;;18.67;;
73938;SDS011;62291;47.554;8.504;2023-07-02T09:29:08;24.55;;;18.02;;
73938;SDS011;62291;47.554;8.504;2023-07-02T09:31:46;23.75;;;18.02;;
73938;SDS011;62291;47.554;8.504;2023-07-02T09:34:13;20.08;;;16.33;;
73938;SDS011;62291;47.554;8.504;2023-07-02T09:36:39;23.20;;;17.58;;
73938;SDS011;62291;47.554;8.504;2023-07-02T09:39:19;25.63;;;18.17;;
73938;SDS011;62291;47.554;8.504;2023-07-02T09:41:50;24.20;;;17.98;;
73938;SDS011;62291;47.554;8.504;2023-07-02T09:44:16;22.88;;;17.52;;
73938;SDS011;62291;47.554;8.504;2023-07-02T09:46:49;23.90;;;17.40;;
73938;SDS011;62291;47.554;8.504;2023-07-02T09:49:29;21.52;;;16.98;;
73938;SDS011;62291;47.554;8.504;2023-07-02T09:51:59;21.10;;;15.85;;
73938;SDS011;62291;47.554;8.504;2023-07-02T09:54:27;19.88;;;16.10;;
73938;SDS011;62291;47.554;8.504;2023-07-02T09:56:54;19.08;;;15.70;;
73938;SDS011;62291;47.554;8.504;2023-07-02T09:59:21;19.08;;;14.95;;
73938;SDS011;62291;47.554;8.504;2023-07-02T10:01:47;23.10;;;15.85;;
73938;SDS011;62291;47.554;8.504;2023-07-02T10:04:14;18.70;;;14.65;;
73938;SDS011;62291;47.554;8.504;2023-07-02T10:06:56;20.88;;;15.88;;
73938;SDS011;62291;47.554;8.504;2023-07-02T10:09:38;18.88;;;14.60;;
73938;SDS011;62291;47.554;8.504;2023-07-02T10:12:19;20.35;;;15.02;;
73938;SDS011;62291;47.554;8.504;2023-07-02T10:19:52;17.75;;;14.85;;
73938;SDS011;62291;47.554;8.504;2023-07-02T10:22:19;18.45;;;15.48;;
73938;SDS011;62291;47.554;8.504;2023-07-02T10:27:32;19.40;;;15.48;;
73938;SDS011;62291;47.554;8.504;2023-07-02T10:30:02;20.35;;;16.05;;
73938;SDS011;62291;47.554;8.504;2023-07-02T10:32:30;19.00;;;15.20;;
73938;SDS011;62291;47.554;8.504;2023-07-02T10:34:58;14.40;;;12.82;;
73938;SDS011;62291;47.554;8.504;2023-07-02T10:37:25;16.52;;;13.57;;
73938;SDS011;62291;47.554;8.504;2023-07-02T10:39:50;18.40;;;13.10;;
73938;SDS011;62291;47.554;8.504;2023-07-02T10:42:17;15.32;;;13.20;;
73938;SDS011;62291;47.554;8.504;2023-07-02T10:47:18;14.88;;;13.20;;
73938;SDS011;62291;47.554;8.504;2023-07-02T10:49:44;15.38;;;13.00;;
73938;SDS011;62291;47.554;8.504;2023-07-02T10:52:10;17.63;;;14.18;;
73938;SDS011;62291;47.554;8.504;2023-07-02T10:54:43;18.75;;;14.77;;
73938;SDS011;62291;47.554;8.504;2023-07-02T10:57:10;18.88;;;15.57;;
73938;SDS011;62291;47.554;8.504;2023-07-02T10:59:38;15.15;;;12.80;;
73938;SDS011;62291;47.554;8.504;2023-07-02T11:02:04;18.98;;;14.25;;
73938;SDS011;62291;47.554;8.504;2023-07-02T11:04:31;17.33;;;14.05;;
73938;SDS011;62291;47.554;8.504;2023-07-02T11:06:58;16.98;;;14.43;;
73938;SDS011;62291;47.554;8.504;2023-07-02T11:09:25;20.38;;;14.23;;
73938;SDS011;62291;47.554;8.504;2023-07-02T11:11:51;18.40;;;15.05;;
73938;SDS011;62291;47.554;8.504;2023-07-02T11:14:34;21.07;;;14.27;;
73938;SDS011;62291;47.554;8.504;2023-07-02T11:17:04;16.85;;;14.23;;
73938;SDS011;62291;47.554;8.504;2023-07-02T11:19:31;18.48;;;14.07;;
73938;SDS011;62291;47.554;8.504;2023-07-02T11:21:58;16.40;;;14.10;;
73938;SDS011;62291;47.554;8.504;2023-07-02T11:27:05;16.27;;;13.65;;
73938;SDS011;62291;47.554;8.504;2023-07-02T11:29:34;15.40;;;13.60;;
73938;SDS011;62291;47.554;8.504;2023-07-02T11:32:05;17.33;;;13.38;;
73938;SDS011;62291;47.554;8.504;2023-07-02T11:34:31;17.20;;;14.23;;
73938;SDS011;62291;47.554;8.504;2023-07-02T11:36:56;17.23;;;13.90;;
73938;SDS011;62291;47.554;8.504;2023-07-02T11:39:22;17.10;;;13.45;;
73938;SDS011;62291;47.554;8.504;2023-07-02T11:41:48;18.80;;;13.70;;
73938;SDS011;62291;47.554;8.504;2023-07-02T11:44:15;15.27;;;13.57;;
73938;SDS011;62291;47.554;8.504;2023-07-02T11:46:42;14.38;;;12.88;;
73938;SDS011;62291;47.554;8.504;2023-07-02T11:49:08;15.40;;;12.75;;
73938;SDS011;62291;47.554;8.504;2023-07-02T11:51:35;16.42;;;13.85;;
73938;SDS011;62291;47.554;8.504;2023-07-02T11:54:02;15.55;;;12.93;;
73938;SDS011;62291;47.554;8.504;2023-07-02T11:56:28;15.98;;;13.10;;
73938;SDS011;62291;47.554;8.504;2023-07-02T11:58:54;16.05;;;12.88;;
73938;SDS011;62291;47.554;8.504;2023-07-02T12:01:20;15.00;;;12.98;;
73938;SDS011;62291;47.554;8.504;2023-07-02T12:03:46;15.07;;;12.27;;
73938;SDS011;62291;47.554;8.504;2023-07-02T12:06:11;14.35;;;12.25;;
73938;SDS011;62291;47.554;8.504;2023-07-02T12:08:37;14.30;;;12.25;;
73938;SDS011;62291;47.554;8.504;2023-07-02T12:11:03;15.43;;;12.40;;
73938;SDS011;62291;47.554;8.504;2023-07-02T12:13:28;18.35;;;13.18;;
73938;SDS011;62291;47.554;8.504;2023-07-02T12:15:54;16.60;;;13.00;;
73938;SDS011;62291;47.554;8.504;2023-07-02T12:18:20;13.90;;;12.35;;
73938;SDS011;62291;47.554;8.504;2023-07-02T12:20:45;16.75;;;13.20;;
73938;SDS011;62291;47.554;8.504;2023-07-02T12:23:11;15.38;;;13.23;;
73938;SDS011;62291;47.554;8.504;2023-07-02T12:25:37;15.75;;;13.65;;
73938;SDS011;62291;47.554;8.504;2023-07-02T12:28:03;18.73;;;13.32;;
73938;SDS011;62291;47.554;8.504;2023-07-02T12:30:30;16.65;;;13.82;;
73938;SDS011;62291;47.554;8.504;2023-07-02T12:32:57;16.17;;;12.88;;
73938;SDS011;62291;47.554;8.504;2023-07-02T12:35:22;17.95;;;13.07;;
73938;SDS011;62291;47.554;8.504;2023-07-02T12:37:49;13.82;;;12.00;;
73938;SDS011;62291;47.554;8.504;2023-07-02T12:40:16;16.70;;;13.27;;
73938;SDS011;62291;47.554;8.504;2023-07-02T12:42:42;15.43;;;11.98;;
73938;SDS011;62291;47.554;8.504;2023-07-02T12:45:09;14.18;;;11.80;;
73938;SDS011;62291;47.554;8.504;2023-07-02T12:47:36;13.50;;;12.10;;
73938;SDS011;62291;47.554;8.504;2023-07-02T12:50:02;15.68;;;12.70;;
73938;SDS011;62291;47.554;8.504;2023-07-02T12:52:29;16.63;;;13.07;;
73938;SDS011;62291;47.554;8.504;2023-07-02T12:54:55;15.05;;;12.40;;
73938;SDS011;62291;47.554;8.504;2023-07-02T12:57:20;13.02;;;11.63;;
73938;SDS011;62291;47.554;8.504;2023-07-02T12:59:46;14.85;;;12.38;;
73938;SDS011;62291;47.554;8.504;2023-07-02T13:02:12;13.65;;;11.23;;
73938;SDS011;62291;47.554;8.504;2023-07-02T13:04:38;12.02;;;10.65;;
73938;SDS011;62291;47.554;8.504;2023-07-02T13:07:04;14.35;;;11.18;;
73938;SDS011;62291;47.554;8.504;2023-07-02T13:09:29;13.75;;;10.55;;
73938;SDS011;62291;47.554;8.504;2023-07-02T13:11:55;12.73;;;10.73;;
73938;SDS011;62291;47.554;8.504;2023-07-02T13:14:21;12.75;;;10.57;;
73938;SDS011;62291;47.554;8.504;2023-07-02T13:16:46;12.10;;;10.52;;
73938;SDS011;62291;47.554;8.504;2023-07-02T13:19:12;12.93;;;10.80;;
73938;SDS011;62291;47.554;8.504;2023-07-02T13:21:38;11.57;;;10.18;;
73938;SDS011;62291;47.554;8.504;2023-07-02T13:24:04;12.55;;;9.98;;
73938;SDS011;62291;47.554;8.504;2023-07-02T13:26:30;12.07;;;10.35;;
73938;SDS011;62291;47.554;8.504;2023-07-02T13:28:56;11.73;;;9.93;;
73938;SDS011;62291;47.554;8.504;2023-07-02T13:31:22;13.52;;;10.75;;
73938;SDS011;62291;47.554;8.504;2023-07-02T13:33:48;12.07;;;9.98;;
73938;SDS011;62291;47.554;8.504;2023-07-02T13:36:15;13.20;;;10.98;;
73938;SDS011;62291;47.554;8.504;2023-07-02T13:38:41;11.45;;;9.32;;
73938;SDS011;62291;47.554;8.504;2023-07-02T13:41:07;14.23;;;10.40;;
73938;SDS011;62291;47.554;8.504;2023-07-02T13:43:33;12.75;;;10.90;;
73938;SDS011;62291;47.554;8.504;2023-07-02T13:45:59;13.90;;;10.40;;
73938;SDS011;62291;47.554;8.504;2023-07-02T13:48:25;11.65;;;10.38;;
73938;SDS011;62291;47.554;8.504;2023-07-02T13:50:50;12.35;;;9.95;;
73938;SDS011;62291;47.554;8.504;2023-07-02T13:53:16;13.35;;;9.20;;
73938;SDS011;62291;47.554;8.504;2023-07-02T13:55:42;11.35;;;9.35;;
73938;SDS011;62291;47.554;8.504;2023-07-02T13:58:07;13.85;;;9.68;;
73938;SDS011;62291;47.554;8.504;2023-07-02T14:00:33;11.25;;;8.95;;
73938;SDS011;62291;47.554;8.504;2023-07-02T14:02:59;12.27;;;9.23;;
73938;SDS011;62291;47.554;8.504;2023-07-02T14:05:24;9.43;;;8.43;;
73938;SDS011;62291;47.554;8.504;2023-07-02T14:07:50;10.48;;;8.98;;
73938;SDS011;62291;47.554;8.504;2023-07-02T14:10:16;10.32;;;8.63;;
73938;SDS011;62291;47.554;8.504;2023-07-02T14:12:42;9.10;;;8.18;;
73938;SDS011;62291;47.554;8.504;2023-07-02T14:15:08;11.68;;;8.45;;
73938;SDS011;62291;47.554;8.504;2023-07-02T14:17:35;9.45;;;8.10;;
73938;SDS011;62291;47.554;8.504;2023-07-02T14:20:02;10.68;;;8.23;;
73938;SDS011;62291;47.554;8.504;2023-07-02T14:22:29;10.10;;;8.18;;
73938;SDS011;62291;47.554;8.504;2023-07-02T14:24:55;10.60;;;8.32;;
73938;SDS011;62291;47.554;8.504;2023-07-02T14:27:20;7.68;;;6.88;;
73938;SDS011;62291;47.554;8.504;2023-07-02T14:29:46;9.60;;;8.18;;
73938;SDS011;62291;47.554;8.504;2023-07-02T14:32:12;9.52;;;7.53;;
73938;SDS011;62291;47.554;8.504;2023-07-02T14:34:38;8.45;;;7.45;;
73938;SDS011;62291;47.554;8.504;2023-07-02T14:37:04;9.73;;;7.60;;
73938;SDS011;62291;47.554;8.504;2023-07-02T14:39:31;9.52;;;7.70;;
73938;SDS011;62291;47.554;8.504;2023-07-02T14:41:57;10.10;;;8.15;;
73938;SDS011;62291;47.554;8.504;2023-07-02T14:44:23;11.25;;;8.15;;
73938;SDS011;62291;47.554;8.504;2023-07-02T14:46:48;9.40;;;8.40;;